sensor_id;sensor_type;location;lat;lon;timestamp;P1;durP1;ratioP1;P2;durP2;ratioP2
73675;SDS011;61975;48.660;10.164;2023-08-01T00:00:30;6.38;;;2.67;;
73675;SDS011;61975;48.660;10.164;2023-08-01T00:02:56;5.57;;;2.63;;
73675;SDS011;61975;48.660;10.164;2023-08-01T00:05:21;9.13;;;2.80;;
73675;SDS011;61975;48.660;10.164;2023-08-01T00:07:47;6.80;;;2.70;;
73675;SDS011;61975;48.660;10.164;2023-08-01T00:10:12;5.87;;;2.47;;
73675;SDS011;61975;48.660;10.164;2023-08-01T00:12:38;6.13;;;2.77;;
73675;SDS011;61975;48.660;10.164;2023-08-01T00:15:03;5.87;;;2.63;;
73675;SDS011;61975;48.660;10.164;2023-08-01T00:17:29;6.45;;;2.50;;
73675;SDS011;61975;48.660;10.164;2023-08-01T00:19:54;7.63;;;2.67;;
73675;SDS011;61975;48.660;10.164;2023-08-01T00:22:20;6.37;;;2.67;;
73675;SDS011;61975;48.660;10.164;2023-08-01T00:24:46;5.68;;;2.60;;
73675;SDS011;61975;48.660;10.164;2023-08-01T00:27:14;6.47;;;2.58;;
73675;SDS011;61975;48.660;10.164;2023-08-01T00:29:40;6.17;;;2.70;;
73675;SDS011;61975;48.660;10.164;2023-08-01T00:32:06;6.03;;;2.70;;
73675;SDS011;61975;48.660;10.164;2023-08-01T00:34:31;6.33;;;2.67;;
73675;SDS011;61975;48.660;10.164;2023-08-01T00:36:57;7.20;;;2.90;;
73675;SDS011;61975;48.660;10.164;2023-08-01T00:39:23;6.85;;;2.70;;
73675;SDS011;61975;48.660;10.164;2023-08-01T00:41:48;6.78;;;2.60;;
73675;SDS011;61975;48.660;10.164;2023-08-01T00:44:14;8.67;;;2.70;;
73675;SDS011;61975;48.660;10.164;2023-08-01T00:46:39;6.07;;;2.57;;
73675;SDS011;61975;48.660;10.164;2023-08-01T00:49:05;6.57;;;2.77;;
73675;SDS011;61975;48.660;10.164;2023-08-01T00:51:31;5.32;;;2.50;;
73675;SDS011;61975;48.660;10.164;2023-08-01T00:53:57;5.70;;;2.53;;
73675;SDS011;61975;48.660;10.164;2023-08-01T00:56:23;5.75;;;2.63;;
73675;SDS011;61975;48.660;10.164;2023-08-01T00:58:49;6.67;;;3.00;;
73675;SDS011;61975;48.660;10.164;2023-08-01T01:01:14;6.10;;;2.37;;
73675;SDS011;61975;48.660;10.164;2023-08-01T01:03:40;6.27;;;2.67;;
73675;SDS011;61975;48.660;10.164;2023-08-01T01:06:12;8.73;;;2.80;;
73675;SDS011;61975;48.660;10.164;2023-08-01T01:08:42;7.03;;;2.80;;
73675;SDS011;61975;48.660;10.164;2023-08-01T01:11:08;7.60;;;3.13;;
73675;SDS011;61975;48.660;10.164;2023-08-01T01:13:33;5.15;;;2.38;;
73675;SDS011;61975;48.660;10.164;2023-08-01T01:15:59;6.13;;;2.67;;
73675;SDS011;61975;48.660;10.164;2023-08-01T01:18:24;8.30;;;3.03;;
73675;SDS011;61975;48.660;10.164;2023-08-01T01:20:49;5.67;;;2.50;;
73675;SDS011;61975;48.660;10.164;2023-08-01T01:23:15;6.30;;;2.60;;
73675;SDS011;61975;48.660;10.164;2023-08-01T01:25:41;6.63;;;2.90;;
73675;SDS011;61975;48.660;10.164;2023-08-01T01:28:07;7.05;;;2.53;;
73675;SDS011;61975;48.660;10.164;2023-08-01T01:30:33;8.18;;;2.72;;
73675;SDS011;61975;48.660;10.164;2023-08-01T01:33:00;7.68;;;2.80;;
73675;SDS011;61975;48.660;10.164;2023-08-01T01:35:26;5.97;;;2.47;;
73675;SDS011;61975;48.660;10.164;2023-08-01T01:37:51;6.43;;;2.90;;
73675;SDS011;61975;48.660;10.164;2023-08-01T01:40:16;5.93;;;2.80;;
73675;SDS011;61975;48.660;10.164;2023-08-01T01:42:42;5.37;;;2.60;;
73675;SDS011;61975;48.660;10.164;2023-08-01T01:45:07;5.63;;;2.70;;
73675;SDS011;61975;48.660;10.164;2023-08-01T01:47:33;6.73;;;3.17;;
73675;SDS011;61975;48.660;10.164;2023-08-01T01:49:58;7.73;;;2.90;;
73675;SDS011;61975;48.660;10.164;2023-08-01T01:52:24;5.85;;;2.72;;
73675;SDS011;61975;48.660;10.164;2023-08-01T01:54:49;6.90;;;3.00;;
73675;SDS011;61975;48.660;10.164;2023-08-01T01:57:14;5.97;;;3.00;;
73675;SDS011;61975;48.660;10.164;2023-08-01T01:59:40;6.20;;;3.03;;
73675;SDS011;61975;48.660;10.164;2023-08-01T02:02:05;7.07;;;2.60;;
73675;SDS011;61975;48.660;10.164;2023-08-01T02:04:31;7.30;;;3.05;;
73675;SDS011;61975;48.660;10.164;2023-08-01T02:06:56;6.27;;;2.77;;
73675;SDS011;61975;48.660;10.164;2023-08-01T02:09:22;6.13;;;2.87;;
73675;SDS011;61975;48.660;10.164;2023-08-01T02:11:47;6.37;;;3.17;;
73675;SDS011;61975;48.660;10.164;2023-08-01T02:14:13;8.18;;;3.28;;
73675;SDS011;61975;48.660;10.164;2023-08-01T02:16:39;8.43;;;3.00;;
73675;SDS011;61975;48.660;10.164;2023-08-01T02:19:04;7.00;;;3.37;;
73675;SDS011;61975;48.660;10.164;2023-08-01T02:21:30;5.73;;;3.00;;
73675;SDS011;61975;48.660;10.164;2023-08-01T02:23:55;7.70;;;3.30;;
73675;SDS011;61975;48.660;10.164;2023-08-01T02:26:20;8.60;;;3.67;;
73675;SDS011;61975;48.660;10.164;2023-08-01T02:28:48;7.32;;;3.30;;
73675;SDS011;61975;48.660;10.164;2023-08-01T02:31:13;8.27;;;3.23;;
73675;SDS011;61975;48.660;10.164;2023-08-01T02:33:38;7.17;;;3.50;;
73675;SDS011;61975;48.660;10.164;2023-08-01T02:36:04;7.60;;;3.23;;
73675;SDS011;61975;48.660;10.164;2023-08-01T02:38:29;8.00;;;3.22;;
73675;SDS011;61975;48.660;10.164;2023-08-01T02:40:55;6.27;;;3.13;;
73675;SDS011;61975;48.660;10.164;2023-08-01T02:43:20;8.63;;;3.80;;
73675;SDS011;61975;48.660;10.164;2023-08-01T02:45:45;6.83;;;3.30;;
73675;SDS011;61975;48.660;10.164;2023-08-01T02:48:11;8.10;;;3.37;;
73675;SDS011;61975;48.660;10.164;2023-08-01T02:50:36;7.27;;;3.40;;
73675;SDS011;61975;48.660;10.164;2023-08-01T02:53:01;7.03;;;3.07;;
73675;SDS011;61975;48.660;10.164;2023-08-01T02:55:27;8.05;;;3.10;;
73675;SDS011;61975;48.660;10.164;2023-08-01T02:57:52;5.80;;;3.00;;
73675;SDS011;61975;48.660;10.164;2023-08-01T03:00:18;5.40;;;2.73;;
73675;SDS011;61975;48.660;10.164;2023-08-01T03:02:43;7.00;;;3.00;;
73675;SDS011;61975;48.660;10.164;2023-08-01T03:05:08;7.60;;;2.80;;
73675;SDS011;61975;48.660;10.164;2023-08-01T03:07:34;6.35;;;2.70;;
73675;SDS011;61975;48.660;10.164;2023-08-01T03:10:00;5.80;;;2.80;;
73675;SDS011;61975;48.660;10.164;2023-08-01T03:12:26;6.38;;;3.03;;
73675;SDS011;61975;48.660;10.164;2023-08-01T03:14:52;5.47;;;2.60;;
73675;SDS011;61975;48.660;10.164;2023-08-01T03:17:17;5.80;;;2.97;;
73675;SDS011;61975;48.660;10.164;2023-08-01T03:19:42;5.87;;;2.70;;
73675;SDS011;61975;48.660;10.164;2023-08-01T03:22:09;5.93;;;2.70;;
73675;SDS011;61975;48.660;10.164;2023-08-01T03:24:34;5.82;;;2.72;;
73675;SDS011;61975;48.660;10.164;2023-08-01T03:27:00;6.93;;;2.70;;
73675;SDS011;61975;48.660;10.164;2023-08-01T03:29:25;6.00;;;2.93;;
73675;SDS011;61975;48.660;10.164;2023-08-01T03:31:51;8.20;;;3.07;;
73675;SDS011;61975;48.660;10.164;2023-08-01T03:34:16;7.90;;;2.87;;
73675;SDS011;61975;48.660;10.164;2023-08-01T03:36:41;8.63;;;2.60;;
73675;SDS011;61975;48.660;10.164;2023-08-01T03:39:07;7.00;;;2.80;;
73675;SDS011;61975;48.660;10.164;2023-08-01T03:41:34;8.05;;;2.70;;
73675;SDS011;61975;48.660;10.164;2023-08-01T03:44:00;7.25;;;2.72;;
73675;SDS011;61975;48.660;10.164;2023-08-01T03:46:26;6.70;;;2.77;;
73675;SDS011;61975;48.660;10.164;2023-08-01T03:48:51;5.43;;;2.47;;
73675;SDS011;61975;48.660;10.164;2023-08-01T03:51:16;5.30;;;2.70;;
73675;SDS011;61975;48.660;10.164;2023-08-01T03:53:44;5.80;;;2.35;;
73675;SDS011;61975;48.660;10.164;2023-08-01T03:56:10;5.93;;;2.58;;
73675;SDS011;61975;48.660;10.164;2023-08-01T03:58:36;4.73;;;2.37;;
73675;SDS011;61975;48.660;10.164;2023-08-01T04:01:01;4.28;;;2.08;;
73675;SDS011;61975;48.660;10.164;2023-08-01T04:03:26;5.47;;;2.37;;
73675;SDS011;61975;48.660;10.164;2023-08-01T04:05:52;6.87;;;2.40;;
73675;SDS011;61975;48.660;10.164;2023-08-01T04:08:17;5.87;;;2.60;;
73675;SDS011;61975;48.660;10.164;2023-08-01T04:10:42;6.17;;;2.50;;
73675;SDS011;61975;48.660;10.164;2023-08-01T04:13:08;6.10;;;2.33;;
73675;SDS011;61975;48.660;10.164;2023-08-01T04:15:34;6.63;;;2.20;;
73675;SDS011;61975;48.660;10.164;2023-08-01T04:17:59;5.23;;;2.27;;
73675;SDS011;61975;48.660;10.164;2023-08-01T04:20:24;5.67;;;2.67;;
73675;SDS011;61975;48.660;10.164;2023-08-01T04:22:50;28.30;;;12.93;;
73675;SDS011;61975;48.660;10.164;2023-08-01T04:25:15;12.23;;;5.23;;
73675;SDS011;61975;48.660;10.164;2023-08-01T04:27:41;8.60;;;3.58;;
73675;SDS011;61975;48.660;10.164;2023-08-01T04:30:06;7.07;;;2.57;;
73675;SDS011;61975;48.660;10.164;2023-08-01T04:32:32;6.35;;;2.38;;
73675;SDS011;61975;48.660;10.164;2023-08-01T04:34:57;5.57;;;2.30;;
73675;SDS011;61975;48.660;10.164;2023-08-01T04:37:23;8.13;;;2.50;;
73675;SDS011;61975;48.660;10.164;2023-08-01T04:39:48;6.17;;;2.40;;
73675;SDS011;61975;48.660;10.164;2023-08-01T04:42:14;6.30;;;2.55;;
73675;SDS011;61975;48.660;10.164;2023-08-01T04:44:39;5.70;;;2.40;;
73675;SDS011;61975;48.660;10.164;2023-08-01T04:47:05;5.57;;;2.20;;
73675;SDS011;61975;48.660;10.164;2023-08-01T04:49:30;6.90;;;2.70;;
73675;SDS011;61975;48.660;10.164;2023-08-01T04:51:55;6.20;;;2.40;;
73675;SDS011;61975;48.660;10.164;2023-08-01T04:54:21;5.00;;;2.30;;
73675;SDS011;61975;48.660;10.164;2023-08-01T04:56:46;5.32;;;1.90;;
73675;SDS011;61975;48.660;10.164;2023-08-01T04:59:12;6.63;;;2.57;;
73675;SDS011;61975;48.660;10.164;2023-08-01T05:01:37;5.23;;;2.30;;
73675;SDS011;61975;48.660;10.164;2023-08-01T05:04:02;6.47;;;2.63;;
73675;SDS011;61975;48.660;10.164;2023-08-01T05:06:28;5.68;;;2.45;;
73675;SDS011;61975;48.660;10.164;2023-08-01T05:08:54;4.50;;;2.07;;
73675;SDS011;61975;48.660;10.164;2023-08-01T05:11:19;5.27;;;2.20;;
73675;SDS011;61975;48.660;10.164;2023-08-01T05:13:45;5.97;;;2.20;;
73675;SDS011;61975;48.660;10.164;2023-08-01T05:16:10;4.50;;;2.10;;
73675;SDS011;61975;48.660;10.164;2023-08-01T05:18:35;5.27;;;2.27;;
73675;SDS011;61975;48.660;10.164;2023-08-01T05:21:01;5.77;;;2.33;;
73675;SDS011;61975;48.660;10.164;2023-08-01T05:23:26;7.47;;;2.50;;
73675;SDS011;61975;48.660;10.164;2023-08-01T05:25:52;7.47;;;2.47;;
73675;SDS011;61975;48.660;10.164;2023-08-01T05:28:17;5.47;;;2.50;;
73675;SDS011;61975;48.660;10.164;2023-08-01T05:30:42;4.93;;;2.40;;
73675;SDS011;61975;48.660;10.164;2023-08-01T05:33:08;5.63;;;2.27;;
73675;SDS011;61975;48.660;10.164;2023-08-01T05:35:33;5.67;;;2.70;;
73675;SDS011;61975;48.660;10.164;2023-08-01T05:37:58;5.70;;;2.15;;
73675;SDS011;61975;48.660;10.164;2023-08-01T05:40:25;4.73;;;2.10;;
73675;SDS011;61975;48.660;10.164;2023-08-01T05:42:50;6.63;;;2.40;;
73675;SDS011;61975;48.660;10.164;2023-08-01T05:45:15;6.77;;;2.50;;
73675;SDS011;61975;48.660;10.164;2023-08-01T05:47:41;4.97;;;2.47;;
73675;SDS011;61975;48.660;10.164;2023-08-01T05:50:07;5.53;;;2.50;;
73675;SDS011;61975;48.660;10.164;2023-08-01T05:52:33;7.30;;;2.80;;
73675;SDS011;61975;48.660;10.164;2023-08-01T05:54:59;7.43;;;2.88;;
73675;SDS011;61975;48.660;10.164;2023-08-01T05:57:27;8.23;;;2.70;;
73675;SDS011;61975;48.660;10.164;2023-08-01T05:59:52;5.28;;;2.35;;
73675;SDS011;61975;48.660;10.164;2023-08-01T06:02:18;5.70;;;2.57;;
73675;SDS011;61975;48.660;10.164;2023-08-01T06:04:43;7.67;;;2.60;;
73675;SDS011;61975;48.660;10.164;2023-08-01T06:07:09;8.60;;;2.72;;
73675;SDS011;61975;48.660;10.164;2023-08-01T06:09:34;5.37;;;2.50;;
73675;SDS011;61975;48.660;10.164;2023-08-01T06:12:00;5.67;;;2.40;;
73675;SDS011;61975;48.660;10.164;2023-08-01T06:14:25;6.43;;;2.47;;
73675;SDS011;61975;48.660;10.164;2023-08-01T06:16:50;9.00;;;2.73;;
73675;SDS011;61975;48.660;10.164;2023-08-01T06:19:16;5.80;;;2.40;;
73675;SDS011;61975;48.660;10.164;2023-08-01T06:21:41;6.15;;;2.60;;
73675;SDS011;61975;48.660;10.164;2023-08-01T06:24:07;6.20;;;2.60;;
73675;SDS011;61975;48.660;10.164;2023-08-01T06:26:33;6.85;;;2.78;;
73675;SDS011;61975;48.660;10.164;2023-08-01T06:28:59;7.17;;;2.60;;
73675;SDS011;61975;48.660;10.164;2023-08-01T06:31:24;6.90;;;2.50;;
73675;SDS011;61975;48.660;10.164;2023-08-01T06:33:49;5.80;;;2.40;;
73675;SDS011;61975;48.660;10.164;2023-08-01T06:36:15;6.30;;;2.70;;
73675;SDS011;61975;48.660;10.164;2023-08-01T06:38:42;5.45;;;2.33;;
73675;SDS011;61975;48.660;10.164;2023-08-01T06:41:07;8.10;;;2.50;;
73675;SDS011;61975;48.660;10.164;2023-08-01T06:43:32;7.17;;;2.30;;
73675;SDS011;61975;48.660;10.164;2023-08-01T06:45:58;5.82;;;2.45;;
73675;SDS011;61975;48.660;10.164;2023-08-01T06:48:23;5.23;;;2.40;;
73675;SDS011;61975;48.660;10.164;2023-08-01T06:50:49;5.93;;;2.50;;
73675;SDS011;61975;48.660;10.164;2023-08-01T06:53:14;5.37;;;2.47;;
73675;SDS011;61975;48.660;10.164;2023-08-01T06:55:39;6.53;;;2.60;;
73675;SDS011;61975;48.660;10.164;2023-08-01T06:58:05;6.50;;;2.73;;
73675;SDS011;61975;48.660;10.164;2023-08-01T07:00:31;7.18;;;2.45;;
73675;SDS011;61975;48.660;10.164;2023-08-01T07:02:56;5.63;;;2.63;;
73675;SDS011;61975;48.660;10.164;2023-08-01T07:05:22;6.00;;;2.40;;
73675;SDS011;61975;48.660;10.164;2023-08-01T07:07:48;6.88;;;2.75;;
73675;SDS011;61975;48.660;10.164;2023-08-01T07:10:13;7.13;;;2.70;;
73675;SDS011;61975;48.660;10.164;2023-08-01T07:12:39;7.30;;;2.63;;
73675;SDS011;61975;48.660;10.164;2023-08-01T07:15:05;6.17;;;2.50;;
73675;SDS011;61975;48.660;10.164;2023-08-01T07:17:31;8.82;;;2.50;;
73675;SDS011;61975;48.660;10.164;2023-08-01T07:19:57;6.10;;;2.30;;
73675;SDS011;61975;48.660;10.164;2023-08-01T07:22:22;7.47;;;2.47;;
73675;SDS011;61975;48.660;10.164;2023-08-01T07:24:52;6.37;;;2.47;;
73675;SDS011;61975;48.660;10.164;2023-08-01T07:27:18;6.83;;;2.50;;
73675;SDS011;61975;48.660;10.164;2023-08-01T07:29:43;6.20;;;2.40;;
73675;SDS011;61975;48.660;10.164;2023-08-01T07:32:08;7.55;;;2.65;;
73675;SDS011;61975;48.660;10.164;2023-08-01T07:34:34;6.13;;;2.50;;
73675;SDS011;61975;48.660;10.164;2023-08-01T07:36:59;4.93;;;2.13;;
73675;SDS011;61975;48.660;10.164;2023-08-01T07:39:24;6.33;;;2.87;;
73675;SDS011;61975;48.660;10.164;2023-08-01T07:41:50;6.77;;;2.70;;
73675;SDS011;61975;48.660;10.164;2023-08-01T07:44:15;6.47;;;2.67;;
73675;SDS011;61975;48.660;10.164;2023-08-01T07:46:40;7.07;;;2.50;;
73675;SDS011;61975;48.660;10.164;2023-08-01T07:49:06;5.97;;;2.72;;
73675;SDS011;61975;48.660;10.164;2023-08-01T07:51:31;6.83;;;2.70;;
73675;SDS011;61975;48.660;10.164;2023-08-01T07:53:58;7.55;;;3.20;;
73675;SDS011;61975;48.660;10.164;2023-08-01T07:56:24;5.03;;;2.40;;
73675;SDS011;61975;48.660;10.164;2023-08-01T07:58:49;6.53;;;2.50;;
73675;SDS011;61975;48.660;10.164;2023-08-01T08:01:14;6.90;;;2.80;;
73675;SDS011;61975;48.660;10.164;2023-08-01T08:03:40;5.77;;;2.87;;
73675;SDS011;61975;48.660;10.164;2023-08-01T08:06:05;5.03;;;2.67;;
73675;SDS011;61975;48.660;10.164;2023-08-01T08:08:31;6.35;;;2.47;;
73675;SDS011;61975;48.660;10.164;2023-08-01T08:11:01;5.30;;;2.63;;
73675;SDS011;61975;48.660;10.164;2023-08-01T08:13:27;7.10;;;2.70;;
73675;SDS011;61975;48.660;10.164;2023-08-01T08:15:55;6.25;;;2.90;;
73675;SDS011;61975;48.660;10.164;2023-08-01T08:18:21;7.47;;;2.22;;
73675;SDS011;61975;48.660;10.164;2023-08-01T08:20:47;6.47;;;2.37;;
73675;SDS011;61975;48.660;10.164;2023-08-01T08:23:13;5.87;;;2.40;;
73675;SDS011;61975;48.660;10.164;2023-08-01T08:25:41;6.10;;;2.30;;
73675;SDS011;61975;48.660;10.164;2023-08-01T08:28:09;5.40;;;2.35;;
73675;SDS011;61975;48.660;10.164;2023-08-01T08:30:36;7.20;;;2.90;;
73675;SDS011;61975;48.660;10.164;2023-08-01T08:33:03;6.57;;;2.50;;
73675;SDS011;61975;48.660;10.164;2023-08-01T08:35:35;5.25;;;2.42;;
73675;SDS011;61975;48.660;10.164;2023-08-01T08:38:01;5.25;;;2.33;;
73675;SDS011;61975;48.660;10.164;2023-08-01T08:40:29;6.03;;;2.40;;
73675;SDS011;61975;48.660;10.164;2023-08-01T08:42:56;5.70;;;2.53;;
73675;SDS011;61975;48.660;10.164;2023-08-01T08:45:28;6.53;;;2.78;;
73675;SDS011;61975;48.660;10.164;2023-08-01T08:47:57;6.70;;;2.80;;
73675;SDS011;61975;48.660;10.164;2023-08-01T08:50:25;6.05;;;2.50;;
73675;SDS011;61975;48.660;10.164;2023-08-01T08:52:52;6.37;;;2.50;;
73675;SDS011;61975;48.660;10.164;2023-08-01T08:55:17;6.00;;;2.80;;
73675;SDS011;61975;48.660;10.164;2023-08-01T08:57:47;5.15;;;2.53;;
73675;SDS011;61975;48.660;10.164;2023-08-01T09:00:16;5.70;;;2.27;;
73675;SDS011;61975;48.660;10.164;2023-08-01T09:02:42;7.13;;;2.65;;
73675;SDS011;61975;48.660;10.164;2023-08-01T09:05:07;6.10;;;2.40;;
73675;SDS011;61975;48.660;10.164;2023-08-01T09:07:33;5.45;;;2.35;;
73675;SDS011;61975;48.660;10.164;2023-08-01T09:10:04;7.68;;;2.75;;
73675;SDS011;61975;48.660;10.164;2023-08-01T09:12:32;8.67;;;2.60;;
73675;SDS011;61975;48.660;10.164;2023-08-01T09:14:59;6.45;;;2.80;;
73675;SDS011;61975;48.660;10.164;2023-08-01T09:17:24;6.47;;;2.53;;
73675;SDS011;61975;48.660;10.164;2023-08-01T09:19:54;7.57;;;2.80;;
73675;SDS011;61975;48.660;10.164;2023-08-01T09:22:21;8.32;;;2.95;;
73675;SDS011;61975;48.660;10.164;2023-08-01T09:24:50;8.27;;;2.85;;
73675;SDS011;61975;48.660;10.164;2023-08-01T09:27:16;7.87;;;2.70;;
73675;SDS011;61975;48.660;10.164;2023-08-01T09:29:42;7.10;;;2.42;;
73675;SDS011;61975;48.660;10.164;2023-08-01T09:32:13;6.70;;;2.60;;
73675;SDS011;61975;48.660;10.164;2023-08-01T09:34:40;6.63;;;2.50;;
73675;SDS011;61975;48.660;10.164;2023-08-01T09:37:06;6.70;;;2.70;;
73675;SDS011;61975;48.660;10.164;2023-08-01T09:39:32;7.47;;;2.35;;
73675;SDS011;61975;48.660;10.164;2023-08-01T09:41:58;6.85;;;2.63;;
73675;SDS011;61975;48.660;10.164;2023-08-01T09:44:25;6.53;;;2.70;;
73675;SDS011;61975;48.660;10.164;2023-08-01T09:46:56;6.88;;;2.88;;
73675;SDS011;61975;48.660;10.164;2023-08-01T09:49:22;7.88;;;2.58;;
73675;SDS011;61975;48.660;10.164;2023-08-01T09:51:48;6.57;;;2.90;;
73675;SDS011;61975;48.660;10.164;2023-08-01T09:54:15;6.50;;;2.83;;
73675;SDS011;61975;48.660;10.164;2023-08-01T09:56:41;6.82;;;2.42;;
73675;SDS011;61975;48.660;10.164;2023-08-01T09:59:09;5.07;;;2.50;;
73675;SDS011;61975;48.660;10.164;2023-08-01T10:01:36;8.17;;;3.00;;
73675;SDS011;61975;48.660;10.164;2023-08-01T10:04:05;7.00;;;2.50;;
73675;SDS011;61975;48.660;10.164;2023-08-01T10:06:33;6.82;;;2.53;;
73675;SDS011;61975;48.660;10.164;2023-08-01T10:09:01;7.53;;;2.60;;
73675;SDS011;61975;48.660;10.164;2023-08-01T10:11:27;6.60;;;2.40;;
73675;SDS011;61975;48.660;10.164;2023-08-01T10:13:55;5.75;;;2.53;;
73675;SDS011;61975;48.660;10.164;2023-08-01T10:16:21;6.15;;;2.65;;
73675;SDS011;61975;48.660;10.164;2023-08-01T10:18:47;6.53;;;2.47;;
73675;SDS011;61975;48.660;10.164;2023-08-01T10:21:16;7.25;;;2.78;;
73675;SDS011;61975;48.660;10.164;2023-08-01T10:23:42;7.38;;;2.42;;
73675;SDS011;61975;48.660;10.164;2023-08-01T10:26:10;5.68;;;2.28;;
73675;SDS011;61975;48.660;10.164;2023-08-01T10:28:37;5.20;;;2.00;;
73675;SDS011;61975;48.660;10.164;2023-08-01T10:31:13;5.93;;;2.17;;
73675;SDS011;61975;48.660;10.164;2023-08-01T10:33:40;5.75;;;2.20;;
73675;SDS011;61975;48.660;10.164;2023-08-01T10:36:13;5.43;;;2.00;;
73675;SDS011;61975;48.660;10.164;2023-08-01T10:38:50;6.20;;;2.30;;
73675;SDS011;61975;48.660;10.164;2023-08-01T10:43:45;5.18;;;1.95;;
73675;SDS011;61975;48.660;10.164;2023-08-01T10:46:10;5.43;;;1.77;;
73675;SDS011;61975;48.660;10.164;2023-08-01T10:48:47;6.73;;;1.90;;
73675;SDS011;61975;48.660;10.164;2023-08-01T10:51:16;5.15;;;1.83;;
73675;SDS011;61975;48.660;10.164;2023-08-01T10:53:42;5.00;;;1.70;;
73675;SDS011;61975;48.660;10.164;2023-08-01T10:56:14;4.85;;;1.77;;
73675;SDS011;61975;48.660;10.164;2023-08-01T10:58:40;4.25;;;1.60;;
73675;SDS011;61975;48.660;10.164;2023-08-01T11:01:06;4.90;;;1.67;;
73675;SDS011;61975;48.660;10.164;2023-08-01T11:03:38;4.90;;;1.60;;
73675;SDS011;61975;48.660;10.164;2023-08-01T11:06:04;4.95;;;1.80;;
73675;SDS011;61975;48.660;10.164;2023-08-01T11:08:39;5.10;;;1.53;;
73675;SDS011;61975;48.660;10.164;2023-08-01T11:11:06;3.67;;;1.40;;
73675;SDS011;61975;48.660;10.164;2023-08-01T11:13:35;4.22;;;1.15;;
73675;SDS011;61975;48.660;10.164;2023-08-01T11:16:04;4.33;;;1.23;;
73675;SDS011;61975;48.660;10.164;2023-08-01T11:18:40;4.38;;;1.20;;
73675;SDS011;61975;48.660;10.164;2023-08-01T11:21:08;3.05;;;1.10;;
73675;SDS011;61975;48.660;10.164;2023-08-01T11:23:33;5.90;;;1.20;;
73675;SDS011;61975;48.660;10.164;2023-08-01T11:26:08;2.92;;;0.90;;
73675;SDS011;61975;48.660;10.164;2023-08-01T11:28:33;3.42;;;0.90;;
73675;SDS011;61975;48.660;10.164;2023-08-01T11:30:59;2.67;;;0.90;;
73675;SDS011;61975;48.660;10.164;2023-08-01T11:33:25;2.77;;;0.90;;
73675;SDS011;61975;48.660;10.164;2023-08-01T11:35:51;2.80;;;0.90;;
73675;SDS011;61975;48.660;10.164;2023-08-01T11:38:18;3.17;;;0.80;;
73675;SDS011;61975;48.660;10.164;2023-08-01T11:40:45;2.97;;;1.00;;
73675;SDS011;61975;48.660;10.164;2023-08-01T11:43:14;3.13;;;0.90;;
73675;SDS011;61975;48.660;10.164;2023-08-01T11:45:47;3.73;;;1.20;;
73675;SDS011;61975;48.660;10.164;2023-08-01T11:48:13;3.03;;;1.08;;
73675;SDS011;61975;48.660;10.164;2023-08-01T11:50:39;3.00;;;0.97;;
73675;SDS011;61975;48.660;10.164;2023-08-01T11:53:04;3.45;;;0.98;;
73675;SDS011;61975;48.660;10.164;2023-08-01T11:55:30;3.37;;;1.10;;
73675;SDS011;61975;48.660;10.164;2023-08-01T11:58:00;3.88;;;1.30;;
73675;SDS011;61975;48.660;10.164;2023-08-01T12:00:27;4.03;;;1.30;;
73675;SDS011;61975;48.660;10.164;2023-08-01T12:03:06;4.57;;;1.30;;
73675;SDS011;61975;48.660;10.164;2023-08-01T12:05:33;3.15;;;1.17;;
73675;SDS011;61975;48.660;10.164;2023-08-01T12:08:08;4.50;;;1.00;;
73675;SDS011;61975;48.660;10.164;2023-08-01T12:10:41;3.30;;;0.90;;
73675;SDS011;61975;48.660;10.164;2023-08-01T12:13:24;3.80;;;0.90;;
73675;SDS011;61975;48.660;10.164;2023-08-01T12:15:54;4.78;;;1.00;;
73675;SDS011;61975;48.660;10.164;2023-08-01T12:18:24;3.37;;;0.60;;
73675;SDS011;61975;48.660;10.164;2023-08-01T12:20:49;2.60;;;0.80;;
73675;SDS011;61975;48.660;10.164;2023-08-01T12:23:15;2.73;;;0.80;;
73675;SDS011;61975;48.660;10.164;2023-08-01T12:25:40;2.67;;;0.80;;
73675;SDS011;61975;48.660;10.164;2023-08-01T12:28:05;2.80;;;0.90;;
73675;SDS011;61975;48.660;10.164;2023-08-01T12:30:31;2.10;;;0.60;;
73675;SDS011;61975;48.660;10.164;2023-08-01T12:32:56;2.13;;;0.60;;
73675;SDS011;61975;48.660;10.164;2023-08-01T12:35:21;2.47;;;0.80;;
73675;SDS011;61975;48.660;10.164;2023-08-01T12:37:47;2.07;;;0.50;;
73675;SDS011;61975;48.660;10.164;2023-08-01T12:40:12;2.05;;;0.50;;
73675;SDS011;61975;48.660;10.164;2023-08-01T12:42:38;2.20;;;0.67;;
73675;SDS011;61975;48.660;10.164;2023-08-01T12:45:03;2.63;;;0.50;;
73675;SDS011;61975;48.660;10.164;2023-08-01T12:47:29;2.13;;;0.60;;
73675;SDS011;61975;48.660;10.164;2023-08-01T12:49:55;2.43;;;0.67;;
73675;SDS011;61975;48.660;10.164;2023-08-01T12:52:24;2.47;;;0.63;;
73675;SDS011;61975;48.660;10.164;2023-08-01T12:54:50;1.97;;;0.60;;
73675;SDS011;61975;48.660;10.164;2023-08-01T12:57:16;3.20;;;0.70;;
73675;SDS011;61975;48.660;10.164;2023-08-01T12:59:41;2.57;;;0.80;;
73675;SDS011;61975;48.660;10.164;2023-08-01T13:02:07;1.87;;;0.60;;
73675;SDS011;61975;48.660;10.164;2023-08-01T13:04:33;2.60;;;0.73;;
73675;SDS011;61975;48.660;10.164;2023-08-01T13:06:59;3.17;;;0.70;;
73675;SDS011;61975;48.660;10.164;2023-08-01T13:09:24;2.20;;;0.70;;
73675;SDS011;61975;48.660;10.164;2023-08-01T13:11:50;3.00;;;0.50;;
73675;SDS011;61975;48.660;10.164;2023-08-01T13:14:15;2.33;;;0.70;;
73675;SDS011;61975;48.660;10.164;2023-08-01T13:16:40;3.10;;;0.93;;
73675;SDS011;61975;48.660;10.164;2023-08-01T13:19:06;2.17;;;0.70;;
73675;SDS011;61975;48.660;10.164;2023-08-01T13:21:32;3.17;;;0.90;;
73675;SDS011;61975;48.660;10.164;2023-08-01T13:23:59;2.15;;;0.68;;
73675;SDS011;61975;48.660;10.164;2023-08-01T13:26:29;2.70;;;0.70;;
73675;SDS011;61975;48.660;10.164;2023-08-01T13:28:54;1.93;;;0.50;;
73675;SDS011;61975;48.660;10.164;2023-08-01T13:31:20;2.30;;;0.70;;
73675;SDS011;61975;48.660;10.164;2023-08-01T13:33:45;2.33;;;0.70;;
73675;SDS011;61975;48.660;10.164;2023-08-01T13:36:10;2.20;;;0.75;;
73675;SDS011;61975;48.660;10.164;2023-08-01T13:38:36;2.20;;;0.70;;
73675;SDS011;61975;48.660;10.164;2023-08-01T13:41:01;2.47;;;0.67;;
73675;SDS011;61975;48.660;10.164;2023-08-01T13:43:27;2.77;;;1.00;;
73675;SDS011;61975;48.660;10.164;2023-08-01T13:45:52;2.97;;;0.80;;
73675;SDS011;61975;48.660;10.164;2023-08-01T13:48:18;2.78;;;1.00;;
73675;SDS011;61975;48.660;10.164;2023-08-01T13:50:43;2.93;;;0.60;;
73675;SDS011;61975;48.660;10.164;2023-08-01T13:53:08;2.33;;;0.77;;
73675;SDS011;61975;48.660;10.164;2023-08-01T13:55:37;3.42;;;0.80;;
73675;SDS011;61975;48.660;10.164;2023-08-01T13:58:02;2.17;;;0.63;;
73675;SDS011;61975;48.660;10.164;2023-08-01T14:00:28;4.77;;;0.80;;
73675;SDS011;61975;48.660;10.164;2023-08-01T14:02:53;1.93;;;0.50;;
73675;SDS011;61975;48.660;10.164;2023-08-01T14:05:19;2.43;;;0.70;;
73675;SDS011;61975;48.660;10.164;2023-08-01T14:07:44;2.70;;;0.90;;
73675;SDS011;61975;48.660;10.164;2023-08-01T14:10:10;2.63;;;0.73;;
73675;SDS011;61975;48.660;10.164;2023-08-01T14:12:36;2.63;;;0.80;;
73675;SDS011;61975;48.660;10.164;2023-08-01T14:15:01;2.43;;;0.70;;
73675;SDS011;61975;48.660;10.164;2023-08-01T14:17:26;2.90;;;1.10;;
73675;SDS011;61975;48.660;10.164;2023-08-01T14:19:52;4.10;;;0.80;;
73675;SDS011;61975;48.660;10.164;2023-08-01T14:22:18;2.78;;;0.70;;
73675;SDS011;61975;48.660;10.164;2023-08-01T14:24:43;3.07;;;0.77;;
73675;SDS011;61975;48.660;10.164;2023-08-01T14:27:08;2.10;;;0.60;;
73675;SDS011;61975;48.660;10.164;2023-08-01T14:29:34;2.47;;;0.80;;